sensor_id;sensor_type;location;lat;lon;timestamp;temperature;humidity
10968;DHT22;5536;49.602;10.980;2023-07-30T00:00:50;18.90;99.90
10968;DHT22;5536;49.602;10.980;2023-07-30T00:03:17;18.90;99.90
10968;DHT22;5536;49.602;10.980;2023-07-30T00:05:52;18.90;99.90
10968;DHT22;5536;49.602;10.980;2023-07-30T00:08:19;19.00;99.90
10968;DHT22;5536;49.602;10.980;2023-07-30T00:10:46;19.10;99.90
10968;DHT22;5536;49.602;10.980;2023-07-30T00:13:13;18.90;99.90
10968;DHT22;5536;49.602;10.980;2023-07-30T00:15:41;18.80;99.90
10968;DHT22;5536;49.602;10.980;2023-07-30T00:18:08;18.60;99.90
10968;DHT22;5536;49.602;10.980;2023-07-30T00:20:35;18.60;99.90
10968;DHT22;5536;49.602;10.980;2023-07-30T00:23:02;18.60;99.90
10968;DHT22;5536;49.602;10.980;2023-07-30T00:25:29;18.50;99.90
10968;DHT22;5536;49.602;10.980;2023-07-30T00:27:56;18.40;99.90
10968;DHT22;5536;49.602;10.980;2023-07-30T00:30:23;18.40;99.90
10968;DHT22;5536;49.602;10.980;2023-07-30T00:32:51;18.50;99.90
10968;DHT22;5536;49.602;10.980;2023-07-30T00:35:18;18.50;99.90
10968;DHT22;5536;49.602;10.980;2023-07-30T00:37:46;18.50;99.90
10968;DHT22;5536;49.602;10.980;2023-07-30T00:40:12;18.60;99.90
10968;DHT22;5536;49.602;10.980;2023-07-30T00:42:39;18.60;99.90
10968;DHT22;5536;49.602;10.980;2023-07-30T00:45:08;18.60;99.90
10968;DHT22;5536;49.602;10.980;2023-07-30T00:47:35;18.70;99.90
10968;DHT22;5536;49.602;10.980;2023-07-30T00:50:06;18.70;99.90
10968;DHT22;5536;49.602;10.980;2023-07-30T00:52:34;18.70;99.90
10968;DHT22;5536;49.602;10.980;2023-07-30T00:55:02;18.60;99.90
10968;DHT22;5536;49.602;10.980;2023-07-30T00:57:29;18.70;99.90
10968;DHT22;5536;49.602;10.980;2023-07-30T00:59:57;18.70;99.90
10968;DHT22;5536;49.602;10.980;2023-07-30T01:02:24;18.60;99.90
10968;DHT22;5536;49.602;10.980;2023-07-30T01:04:52;18.70;99.90
10968;DHT22;5536;49.602;10.980;2023-07-30T01:07:20;18.70;99.90
10968;DHT22;5536;49.602;10.980;2023-07-30T01:09:47;18.70;99.90
10968;DHT22;5536;49.602;10.980;2023-07-30T01:12:14;18.60;99.90
10968;DHT22;5536;49.602;10.980;2023-07-30T01:14:41;18.60;99.90
10968;DHT22;5536;49.602;10.980;2023-07-30T01:17:09;18.60;99.90
10968;DHT22;5536;49.602;10.980;2023-07-30T01:19:37;18.60;99.90
10968;DHT22;5536;49.602;10.980;2023-07-30T01:22:05;18.60;99.90
10968;DHT22;5536;49.602;10.980;2023-07-30T01:24:32;18.60;99.90
10968;DHT22;5536;49.602;10.980;2023-07-30T01:27:01;18.70;99.90
10968;DHT22;5536;49.602;10.980;2023-07-30T01:29:33;18.70;99.90
10968;DHT22;5536;49.602;10.980;2023-07-30T01:32:05;18.70;99.90
10968;DHT22;5536;49.602;10.980;2023-07-30T01:34:35;18.70;99.90
10968;DHT22;5536;49.602;10.980;2023-07-30T01:37:04;18.70;99.90
10968;DHT22;5536;49.602;10.980;2023-07-30T01:39:32;18.60;99.90
10968;DHT22;5536;49.602;10.980;2023-07-30T01:41:59;18.60;99.90
10968;DHT22;5536;49.602;10.980;2023-07-30T01:44:26;18.60;99.90
10968;DHT22;5536;49.602;10.980;2023-07-30T01:46:53;18.50;99.90
10968;DHT22;5536;49.602;10.980;2023-07-30T01:49:20;18.40;99.90
10968;DHT22;5536;49.602;10.980;2023-07-30T01:51:47;18.50;99.90
10968;DHT22;5536;49.602;10.980;2023-07-30T01:54:16;18.50;99.90
10968;DHT22;5536;49.602;10.980;2023-07-30T01:56:43;18.50;99.90
10968;DHT22;5536;49.602;10.980;2023-07-30T01:59:10;18.30;99.90
10968;DHT22;5536;49.602;10.980;2023-07-30T02:01:36;18.30;99.90
10968;DHT22;5536;49.602;10.980;2023-07-30T02:04:04;18.30;99.90
10968;DHT22;5536;49.602;10.980;2023-07-30T02:06:30;18.20;99.90
10968;DHT22;5536;49.602;10.980;2023-07-30T02:08:57;18.20;99.90
10968;DHT22;5536;49.602;10.980;2023-07-30T02:11:26;18.20;99.90
10968;DHT22;5536;49.602;10.980;2023-07-30T02:13:54;18.30;99.90
10968;DHT22;5536;49.602;10.980;2023-07-30T02:16:21;18.20;99.90
10968;DHT22;5536;49.602;10.980;2023-07-30T02:18:48;18.20;99.90
10968;DHT22;5536;49.602;10.980;2023-07-30T02:21:14;18.20;99.90
10968;DHT22;5536;49.602;10.980;2023-07-30T02:23:41;18.30;99.90
10968;DHT22;5536;49.602;10.980;2023-07-30T02:26:08;18.30;99.90
10968;DHT22;5536;49.602;10.980;2023-07-30T02:28:37;18.40;99.90
10968;DHT22;5536;49.602;10.980;2023-07-30T02:31:04;18.60;99.90
10968;DHT22;5536;49.602;10.980;2023-07-30T02:33:30;18.50;99.90
10968;DHT22;5536;49.602;10.980;2023-07-30T02:35:57;18.50;99.90
10968;DHT22;5536;49.602;10.980;2023-07-30T02:38:24;18.50;99.90
10968;DHT22;5536;49.602;10.980;2023-07-30T02:40:51;18.50;99.90
10968;DHT22;5536;49.602;10.980;2023-07-30T02:43:18;18.50;99.90
10968;DHT22;5536;49.602;10.980;2023-07-30T02:45:48;18.60;99.90
10968;DHT22;5536;49.602;10.980;2023-07-30T02:48:15;18.60;99.90
10968;DHT22;5536;49.602;10.980;2023-07-30T02:50:42;18.60;99.90
10968;DHT22;5536;49.602;10.980;2023-07-30T02:53:09;18.60;99.90
10968;DHT22;5536;49.602;10.980;2023-07-30T02:55:36;18.60;99.90
10968;DHT22;5536;49.602;10.980;2023-07-30T02:58:03;18.60;99.90
10968;DHT22;5536;49.602;10.980;2023-07-30T03:00:30;18.70;99.90
10968;DHT22;5536;49.602;10.980;2023-07-30T03:02:58;18.70;99.90
10968;DHT22;5536;49.602;10.980;2023-07-30T03:05:26;18.60;99.90
10968;DHT22;5536;49.602;10.980;2023-07-30T03:07:53;18.60;99.90
10968;DHT22;5536;49.602;10.980;2023-07-30T03:10:20;18.50;99.90
10968;DHT22;5536;49.602;10.980;2023-07-30T03:12:47;18.50;99.90
10968;DHT22;5536;49.602;10.980;2023-07-30T03:15:14;18.50;99.90
10968;DHT22;5536;49.602;10.980;2023-07-30T03:17:41;18.50;99.90
10968;DHT22;5536;49.602;10.980;2023-07-30T03:20:10;18.50;99.90
10968;DHT22;5536;49.602;10.980;2023-07-30T03:22:37;18.50;99.90
10968;DHT22;5536;49.602;10.980;2023-07-30T03:25:04;18.50;99.90
10968;DHT22;5536;49.602;10.980;2023-07-30T03:27:31;18.50;99.90
10968;DHT22;5536;49.602;10.980;2023-07-30T03:29:58;18.50;99.90
10968;DHT22;5536;49.602;10.980;2023-07-30T03:32:25;18.50;99.90
10968;DHT22;5536;49.602;10.980;2023-07-30T03:34:52;18.40;99.90
10968;DHT22;5536;49.602;10.980;2023-07-30T03:37:20;18.40;99.90
10968;DHT22;5536;49.602;10.980;2023-07-30T03:39:48;18.40;99.90
10968;DHT22;5536;49.602;10.980;2023-07-30T03:42:15;18.50;99.90
10968;DHT22;5536;49.602;10.980;2023-07-30T03:44:41;18.40;99.90
10968;DHT22;5536;49.602;10.980;2023-07-30T03:47:08;18.40;99.90
10968;DHT22;5536;49.602;10.980;2023-07-30T03:49:35;18.50;99.90
10968;DHT22;5536;49.602;10.980;2023-07-30T03:52:03;18.40;99.90
10968;DHT22;5536;49.602;10.980;2023-07-30T03:54:32;18.50;99.90
10968;DHT22;5536;49.602;10.980;2023-07-30T03:56:59;18.50;99.90
10968;DHT22;5536;49.602;10.980;2023-07-30T03:59:26;18.40;99.90
10968;DHT22;5536;49.602;10.980;2023-07-30T04:01:54;18.40;99.90
10968;DHT22;5536;49.602;10.980;2023-07-30T04:04:21;18.50;99.90
10968;DHT22;5536;49.602;10.980;2023-07-30T04:06:48;18.40;99.90
10968;DHT22;5536;49.602;10.980;2023-07-30T04:09:15;18.40;99.90
10968;DHT22;5536;49.602;10.980;2023-07-30T04:11:43;18.50;99.90
10968;DHT22;5536;49.602;10.980;2023-07-30T04:14:10;18.60;99.90
10968;DHT22;5536;49.602;10.980;2023-07-30T04:16:37;18.60;99.90
10968;DHT22;5536;49.602;10.980;2023-07-30T04:19:04;18.50;99.90
10968;DHT22;5536;49.602;10.980;2023-07-30T04:21:31;18.30;99.90
10968;DHT22;5536;49.602;10.980;2023-07-30T04:23:57;18.40;99.90
10968;DHT22;5536;49.602;10.980;2023-07-30T04:26:24;18.40;99.90
10968;DHT22;5536;49.602;10.980;2023-07-30T04:28:53;18.40;99.90
10968;DHT22;5536;49.602;10.980;2023-07-30T04:31:20;18.40;99.90
10968;DHT22;5536;49.602;10.980;2023-07-30T04:33:47;18.40;99.90
10968;DHT22;5536;49.602;10.980;2023-07-30T04:36:13;18.50;99.90
10968;DHT22;5536;49.602;10.980;2023-07-30T04:38:40;18.50;99.90
10968;DHT22;5536;49.602;10.980;2023-07-30T04:41:07;18.50;99.90
10968;DHT22;5536;49.602;10.980;2023-07-30T04:43:34;18.50;99.90
10968;DHT22;5536;49.602;10.980;2023-07-30T04:46:03;18.50;99.90
10968;DHT22;5536;49.602;10.980;2023-07-30T04:48:30;18.50;99.90
10968;DHT22;5536;49.602;10.980;2023-07-30T04:50:56;18.50;99.90
10968;DHT22;5536;49.602;10.980;2023-07-30T04:53:24;18.60;99.90
10968;DHT22;5536;49.602;10.980;2023-07-30T04:55:55;18.60;99.90
10968;DHT22;5536;49.602;10.980;2023-07-30T04:58:22;18.70;99.90
10968;DHT22;5536;49.602;10.980;2023-07-30T05:00:49;18.70;99.90
10968;DHT22;5536;49.602;10.980;2023-07-30T05:03:17;18.70;99.90
10968;DHT22;5536;49.602;10.980;2023-07-30T05:05:44;18.70;99.90
10968;DHT22;5536;49.602;10.980;2023-07-30T05:08:11;18.70;99.90
10968;DHT22;5536;49.602;10.980;2023-07-30T05:10:38;18.70;99.90
10968;DHT22;5536;49.602;10.980;2023-07-30T05:13:05;18.70;99.90
10968;DHT22;5536;49.602;10.980;2023-07-30T05:15:32;18.70;99.90
10968;DHT22;5536;49.602;10.980;2023-07-30T05:17:59;18.70;99.90
10968;DHT22;5536;49.602;10.980;2023-07-30T05:20:28;18.70;99.90
10968;DHT22;5536;49.602;10.980;2023-07-30T05:22:55;18.80;99.90
10968;DHT22;5536;49.602;10.980;2023-07-30T05:25:22;18.80;99.90
10968;DHT22;5536;49.602;10.980;2023-07-30T05:27:49;18.80;99.90
10968;DHT22;5536;49.602;10.980;2023-07-30T05:30:16;18.90;99.90
10968;DHT22;5536;49.602;10.980;2023-07-30T05:32:43;19.00;99.90
10968;DHT22;5536;49.602;10.980;2023-07-30T05:35:10;19.00;99.90
10968;DHT22;5536;49.602;10.980;2023-07-30T05:37:38;19.10;99.90
10968;DHT22;5536;49.602;10.980;2023-07-30T05:40:06;19.10;99.90
10968;DHT22;5536;49.602;10.980;2023-07-30T05:42:33;19.20;99.90
10968;DHT22;5536;49.602;10.980;2023-07-30T05:45:00;19.20;99.90
10968;DHT22;5536;49.602;10.980;2023-07-30T05:47:27;19.20;99.90
10968;DHT22;5536;49.602;10.980;2023-07-30T05:49:54;19.20;99.90
10968;DHT22;5536;49.602;10.980;2023-07-30T05:52:21;19.20;99.90
10968;DHT22;5536;49.602;10.980;2023-07-30T05:54:50;19.30;99.90
10968;DHT22;5536;49.602;10.980;2023-07-30T05:57:17;19.30;99.90
10968;DHT22;5536;49.602;10.980;2023-07-30T05:59:43;19.30;99.90
10968;DHT22;5536;49.602;10.980;2023-07-30T06:02:10;19.40;99.90
10968;DHT22;5536;49.602;10.980;2023-07-30T06:04:37;19.30;99.90
10968;DHT22;5536;49.602;10.980;2023-07-30T06:07:04;19.40;99.90
10968;DHT22;5536;49.602;10.980;2023-07-30T06:09:31;19.40;99.90
10968;DHT22;5536;49.602;10.980;2023-07-30T06:11:59;19.50;99.90
10968;DHT22;5536;49.602;10.980;2023-07-30T06:14:27;19.50;99.90
10968;DHT22;5536;49.602;10.980;2023-07-30T06:16:54;19.60;99.90
10968;DHT22;5536;49.602;10.980;2023-07-30T06:19:21;19.60;99.90
10968;DHT22;5536;49.602;10.980;2023-07-30T06:21:47;19.70;99.90
10968;DHT22;5536;49.602;10.980;2023-07-30T06:24:14;19.80;99.90
10968;DHT22;5536;49.602;10.980;2023-07-30T06:26:41;20.00;99.90
10968;DHT22;5536;49.602;10.980;2023-07-30T06:29:10;20.10;99.90
10968;DHT22;5536;49.602;10.980;2023-07-30T06:31:37;20.00;99.90
10968;DHT22;5536;49.602;10.980;2023-07-30T06:34:04;20.00;99.90
10968;DHT22;5536;49.602;10.980;2023-07-30T06:36:31;20.10;99.90
10968;DHT22;5536;49.602;10.980;2023-07-30T06:38:58;20.40;99.90
10968;DHT22;5536;49.602;10.980;2023-07-30T06:41:26;20.50;99.90
10968;DHT22;5536;49.602;10.980;2023-07-30T06:43:52;20.40;99.90
10968;DHT22;5536;49.602;10.980;2023-07-30T06:46:21;20.30;99.90
10968;DHT22;5536;49.602;10.980;2023-07-30T06:48:48;20.30;99.90
10968;DHT22;5536;49.602;10.980;2023-07-30T06:51:19;20.30;99.90
10968;DHT22;5536;49.602;10.980;2023-07-30T06:53:46;20.40;99.90
10968;DHT22;5536;49.602;10.980;2023-07-30T06:56:13;20.60;99.90
10968;DHT22;5536;49.602;10.980;2023-07-30T06:58:40;20.70;99.90
10968;DHT22;5536;49.602;10.980;2023-07-30T07:01:07;20.60;99.90
10968;DHT22;5536;49.602;10.980;2023-07-30T07:03:35;20.60;99.90
10968;DHT22;5536;49.602;10.980;2023-07-30T07:06:02;20.60;99.90
10968;DHT22;5536;49.602;10.980;2023-07-30T07:08:29;20.70;99.90
10968;DHT22;5536;49.602;10.980;2023-07-30T07:10:56;20.70;99.90
10968;DHT22;5536;49.602;10.980;2023-07-30T07:13:23;20.70;99.90
10968;DHT22;5536;49.602;10.980;2023-07-30T07:15:50;20.70;99.90
10968;DHT22;5536;49.602;10.980;2023-07-30T07:18:18;20.70;99.90
10968;DHT22;5536;49.602;10.980;2023-07-30T07:20:46;20.70;99.90
10968;DHT22;5536;49.602;10.980;2023-07-30T07:23:13;20.70;99.90
10968;DHT22;5536;49.602;10.980;2023-07-30T07:25:40;20.80;99.90
10968;DHT22;5536;49.602;10.980;2023-07-30T07:28:07;20.80;99.90
10968;DHT22;5536;49.602;10.980;2023-07-30T07:30:35;21.00;99.90
10968;DHT22;5536;49.602;10.980;2023-07-30T07:33:02;20.90;99.90
10968;DHT22;5536;49.602;10.980;2023-07-30T07:35:31;21.00;99.90
10968;DHT22;5536;49.602;10.980;2023-07-30T07:37:59;21.00;99.90
10968;DHT22;5536;49.602;10.980;2023-07-30T07:40:26;20.90;99.90
10968;DHT22;5536;49.602;10.980;2023-07-30T07:42:55;21.00;99.90
10968;DHT22;5536;49.602;10.980;2023-07-30T07:45:22;21.20;99.90
10968;DHT22;5536;49.602;10.980;2023-07-30T07:47:49;21.10;99.90
10968;DHT22;5536;49.602;10.980;2023-07-30T07:50:16;21.20;99.90
10968;DHT22;5536;49.602;10.980;2023-07-30T07:52:43;21.30;99.90
10968;DHT22;5536;49.602;10.980;2023-07-30T07:55:12;21.30;99.90
10968;DHT22;5536;49.602;10.980;2023-07-30T07:57:39;21.20;99.90
10968;DHT22;5536;49.602;10.980;2023-07-30T08:00:07;21.00;99.90
10968;DHT22;5536;49.602;10.980;2023-07-30T08:02:34;21.00;99.90
10968;DHT22;5536;49.602;10.980;2023-07-30T08:05:01;20.90;99.90
10968;DHT22;5536;49.602;10.980;2023-07-30T08:07:29;21.00;99.90
10968;DHT22;5536;49.602;10.980;2023-07-30T08:09:56;21.00;99.90
10968;DHT22;5536;49.602;10.980;2023-07-30T08:12:24;20.90;99.90
10968;DHT22;5536;49.602;10.980;2023-07-30T08:14:51;20.90;99.90
10968;DHT22;5536;49.602;10.980;2023-07-30T08:17:18;20.80;99.90
10968;DHT22;5536;49.602;10.980;2023-07-30T08:19:46;20.80;99.90
10968;DHT22;5536;49.602;10.980;2023-07-30T08:22:13;20.80;99.90
10968;DHT22;5536;49.602;10.980;2023-07-30T08:24:40;20.80;99.90
10968;DHT22;5536;49.602;10.980;2023-07-30T08:27:07;20.90;99.90
10968;DHT22;5536;49.602;10.980;2023-07-30T08:29:35;20.90;99.90
10968;DHT22;5536;49.602;10.980;2023-07-30T08:32:03;20.90;99.90
10968;DHT22;5536;49.602;10.980;2023-07-30T08:34:30;20.80;99.90
10968;DHT22;5536;49.602;10.980;2023-07-30T08:36:57;20.80;99.90
10968;DHT22;5536;49.602;10.980;2023-07-30T08:39:24;20.80;99.90
10968;DHT22;5536;49.602;10.980;2023-07-30T08:41:51;20.80;99.90
10968;DHT22;5536;49.602;10.980;2023-07-30T08:44:18;20.90;99.90
10968;DHT22;5536;49.602;10.980;2023-07-30T08:46:47;21.00;99.90
10968;DHT22;5536;49.602;10.980;2023-07-30T08:49:14;21.10;99.90
10968;DHT22;5536;49.602;10.980;2023-07-30T08:51:41;21.30;99.90
10968;DHT22;5536;49.602;10.980;2023-07-30T08:54:10;21.40;99.90
10968;DHT22;5536;49.602;10.980;2023-07-30T08:56:38;21.40;99.90
10968;DHT22;5536;49.602;10.980;2023-07-30T08:59:06;21.50;99.90
10968;DHT22;5536;49.602;10.980;2023-07-30T09:01:37;21.50;99.90
10968;DHT22;5536;49.602;10.980;2023-07-30T09:04:06;21.40;99.90
10968;DHT22;5536;49.602;10.980;2023-07-30T09:06:34;21.50;99.90
10968;DHT22;5536;49.602;10.980;2023-07-30T09:09:01;21.40;99.90
10968;DHT22;5536;49.602;10.980;2023-07-30T09:11:29;21.50;99.90
10968;DHT22;5536;49.602;10.980;2023-07-30T09:13:57;21.50;99.90
10968;DHT22;5536;49.602;10.980;2023-07-30T09:16:25;21.60;99.90
10968;DHT22;5536;49.602;10.980;2023-07-30T09:18:53;21.70;99.90
10968;DHT22;5536;49.602;10.980;2023-07-30T09:21:29;21.70;99.90
10968;DHT22;5536;49.602;10.980;2023-07-30T09:23:56;21.60;99.90
10968;DHT22;5536;49.602;10.980;2023-07-30T09:26:23;21.90;99.90
10968;DHT22;5536;49.602;10.980;2023-07-30T09:28:50;21.90;99.90
10968;DHT22;5536;49.602;10.980;2023-07-30T09:31:17;22.00;99.90
10968;DHT22;5536;49.602;10.980;2023-07-30T09:33:44;22.20;99.90
10968;DHT22;5536;49.602;10.980;2023-07-30T09:36:11;22.50;99.90
10968;DHT22;5536;49.602;10.980;2023-07-30T09:38:42;22.40;99.90
10968;DHT22;5536;49.602;10.980;2023-07-30T09:41:11;22.40;99.90
10968;DHT22;5536;49.602;10.980;2023-07-30T09:43:40;22.40;99.90
10968;DHT22;5536;49.602;10.980;2023-07-30T09:46:07;22.60;99.90
10968;DHT22;5536;49.602;10.980;2023-07-30T09:48:35;22.90;99.90
10968;DHT22;5536;49.602;10.980;2023-07-30T09:51:03;23.00;99.90
10968;DHT22;5536;49.602;10.980;2023-07-30T09:53:32;22.90;99.90
10968;DHT22;5536;49.602;10.980;2023-07-30T09:56:02;23.00;99.90
10968;DHT22;5536;49.602;10.980;2023-07-30T09:58:29;23.00;99.90
10968;DHT22;5536;49.602;10.980;2023-07-30T10:00:58;23.10;99.90
10968;DHT22;5536;49.602;10.980;2023-07-30T10:03:26;23.10;99.90
10968;DHT22;5536;49.602;10.980;2023-07-30T10:05:55;23.00;99.90
10968;DHT22;5536;49.602;10.980;2023-07-30T10:08:26;23.00;99.90
10968;DHT22;5536;49.602;10.980;2023-07-30T10:10:54;22.90;99.90
10968;DHT22;5536;49.602;10.980;2023-07-30T10:13:23;22.90;99.90
10968;DHT22;5536;49.602;10.980;2023-07-30T10:15:51;23.00;99.90
10968;DHT22;5536;49.602;10.980;2023-07-30T10:18:18;23.10;99.90
10968;DHT22;5536;49.602;10.980;2023-07-30T10:20:52;22.90;99.90
10968;DHT22;5536;49.602;10.980;2023-07-30T10:23:20;22.90;99.90
10968;DHT22;5536;49.602;10.980;2023-07-30T10:25:49;22.80;99.90
10968;DHT22;5536;49.602;10.980;2023-07-30T10:28:31;22.60;99.90
10968;DHT22;5536;49.602;10.980;2023-07-30T10:31:00;22.70;99.90
10968;DHT22;5536;49.602;10.980;2023-07-30T10:33:46;22.80;99.90
10968;DHT22;5536;49.602;10.980;2023-07-30T10:36:17;22.80;99.90
10968;DHT22;5536;49.602;10.980;2023-07-30T10:38:44;22.70;99.90
10968;DHT22;5536;49.602;10.980;2023-07-30T10:41:13;22.30;99.90
10968;DHT22;5536;49.602;10.980;2023-07-30T10:43:46;22.00;99.90
10968;DHT22;5536;49.602;10.980;2023-07-30T10:46:14;21.90;99.90
10968;DHT22;5536;49.602;10.980;2023-07-30T10:48:42;21.80;99.90
10968;DHT22;5536;49.602;10.980;2023-07-30T10:51:12;21.70;99.90
10968;DHT22;5536;49.602;10.980;2023-07-30T10:53:42;21.70;99.90
10968;DHT22;5536;49.602;10.980;2023-07-30T10:56:09;21.60;99.90
10968;DHT22;5536;49.602;10.980;2023-07-30T10:58:37;21.50;99.90
10968;DHT22;5536;49.602;10.980;2023-07-30T11:01:07;21.60;99.90
10968;DHT22;5536;49.602;10.980;2023-07-30T11:03:35;22.00;99.90
10968;DHT22;5536;49.602;10.980;2023-07-30T11:06:03;22.30;99.90
10968;DHT22;5536;49.602;10.980;2023-07-30T11:08:34;22.70;99.90
10968;DHT22;5536;49.602;10.980;2023-07-30T11:11:02;22.90;99.90
10968;DHT22;5536;49.602;10.980;2023-07-30T11:13:29;22.80;99.90
10968;DHT22;5536;49.602;10.980;2023-07-30T11:15:56;22.70;99.90
10968;DHT22;5536;49.602;10.980;2023-07-30T11:18:25;22.80;99.90
10968;DHT22;5536;49.602;10.980;2023-07-30T11:20:52;22.70;99.90
10968;DHT22;5536;49.602;10.980;2023-07-30T11:23:22;22.60;99.90
10968;DHT22;5536;49.602;10.980;2023-07-30T11:25:50;22.40;99.90
10968;DHT22;5536;49.602;10.980;2023-07-30T11:28:30;22.20;99.90
10968;DHT22;5536;49.602;10.980;2023-07-30T11:31:02;22.20;99.90
10968;DHT22;5536;49.602;10.980;2023-07-30T11:33:31;22.10;99.90
10968;DHT22;5536;49.602;10.980;2023-07-30T11:36:00;22.30;99.90
10968;DHT22;5536;49.602;10.980;2023-07-30T11:38:30;22.20;99.90
10968;DHT22;5536;49.602;10.980;2023-07-30T11:40:57;22.20;99.90
10968;DHT22;5536;49.602;10.980;2023-07-30T11:43:25;22.20;99.90
10968;DHT22;5536;49.602;10.980;2023-07-30T11:46:10;22.30;99.90
10968;DHT22;5536;49.602;10.980;2023-07-30T11:48:39;22.50;99.90
10968;DHT22;5536;49.602;10.980;2023-07-30T11:51:06;22.50;99.90
10968;DHT22;5536;49.602;10.980;2023-07-30T11:53:47;22.40;99.90
10968;DHT22;5536;49.602;10.980;2023-07-30T11:56:17;22.40;99.90
10968;DHT22;5536;49.602;10.980;2023-07-30T11:58:45;22.70;99.90
10968;DHT22;5536;49.602;10.980;2023-07-30T12:01:13;22.80;99.90
10968;DHT22;5536;49.602;10.980;2023-07-30T12:03:41;23.20;99.90
10968;DHT22;5536;49.602;10.980;2023-07-30T12:06:09;23.40;99.90
10968;DHT22;5536;49.602;10.980;2023-07-30T12:08:37;23.30;99.90
10968;DHT22;5536;49.602;10.980;2023-07-30T12:11:06;23.20;99.90
10968;DHT22;5536;49.602;10.980;2023-07-30T12:13:34;22.90;99.90
10968;DHT22;5536;49.602;10.980;2023-07-30T12:16:08;23.20;99.90
10968;DHT22;5536;49.602;10.980;2023-07-30T12:18:37;23.50;99.90
10968;DHT22;5536;49.602;10.980;2023-07-30T12:21:06;23.90;99.90
10968;DHT22;5536;49.602;10.980;2023-07-30T12:23:34;24.40;99.90
10968;DHT22;5536;49.602;10.980;2023-07-30T12:26:02;25.00;99.90
10968;DHT22;5536;49.602;10.980;2023-07-30T12:28:31;25.90;99.90
10968;DHT22;5536;49.602;10.980;2023-07-30T12:30:59;26.20;99.90
10968;DHT22;5536;49.602;10.980;2023-07-30T12:33:26;26.60;99.90
10968;DHT22;5536;49.602;10.980;2023-07-30T12:35:53;26.50;99.90
10968;DHT22;5536;49.602;10.980;2023-07-30T12:38:22;25.90;99.90
10968;DHT22;5536;49.602;10.980;2023-07-30T12:40:49;26.10;99.90
10968;DHT22;5536;49.602;10.980;2023-07-30T12:43:16;26.30;99.90
10968;DHT22;5536;49.602;10.980;2023-07-30T12:45:46;26.70;99.90
10968;DHT22;5536;49.602;10.980;2023-07-30T12:48:13;26.90;99.90
10968;DHT22;5536;49.602;10.980;2023-07-30T12:50:40;27.30;99.90
10968;DHT22;5536;49.602;10.980;2023-07-30T12:53:07;27.20;99.90
10968;DHT22;5536;49.602;10.980;2023-07-30T12:55:35;27.00;99.90
10968;DHT22;5536;49.602;10.980;2023-07-30T12:58:03;27.00;99.90
10968;DHT22;5536;49.602;10.980;2023-07-30T13:00:31;27.50;99.90
10968;DHT22;5536;49.602;10.980;2023-07-30T13:02:58;28.20;99.90
10968;DHT22;5536;49.602;10.980;2023-07-30T13:05:25;28.10;99.90
10968;DHT22;5536;49.602;10.980;2023-07-30T13:07:52;28.30;99.90
10968;DHT22;5536;49.602;10.980;2023-07-30T13:10:19;28.40;99.90
10968;DHT22;5536;49.602;10.980;2023-07-30T13:12:47;27.50;99.90
10968;DHT22;5536;49.602;10.980;2023-07-30T13:15:14;26.90;99.90
10968;DHT22;5536;49.602;10.980;2023-07-30T13:17:41;25.90;99.90
10968;DHT22;5536;49.602;10.980;2023-07-30T13:20:09;25.00;99.90
10968;DHT22;5536;49.602;10.980;2023-07-30T13:22:36;24.40;99.90
10968;DHT22;5536;49.602;10.980;2023-07-30T13:25:04;24.80;99.90
10968;DHT22;5536;49.602;10.980;2023-07-30T13:27:31;24.80;99.90
10968;DHT22;5536;49.602;10.980;2023-07-30T13:29:59;25.40;99.90
10968;DHT22;5536;49.602;10.980;2023-07-30T13:32:26;25.40;99.90
10968;DHT22;5536;49.602;10.980;2023-07-30T13:34:53;24.90;99.90
10968;DHT22;5536;49.602;10.980;2023-07-30T13:37:20;24.30;99.90
10968;DHT22;5536;49.602;10.980;2023-07-30T13:39:47;23.80;99.90
10968;DHT22;5536;49.602;10.980;2023-07-30T13:42:13;24.30;99.90
10968;DHT22;5536;49.602;10.980;2023-07-30T13:44:40;25.30;99.90
10968;DHT22;5536;49.602;10.980;2023-07-30T13:47:09;26.00;99.90
10968;DHT22;5536;49.602;10.980;2023-07-30T13:49:36;26.50;99.90
10968;DHT22;5536;49.602;10.980;2023-07-30T13:52:03;26.50;99.90
10968;DHT22;5536;49.602;10.980;2023-07-30T13:54:30;26.10;99.90
10968;DHT22;5536;49.602;10.980;2023-07-30T13:56:57;26.00;99.90
10968;DHT22;5536;49.602;10.980;2023-07-30T13:59:24;25.80;99.90
10968;DHT22;5536;49.602;10.980;2023-07-30T14:01:51;26.40;99.90
10968;DHT22;5536;49.602;10.980;2023-07-30T14:04:20;26.40;99.90
10968;DHT22;5536;49.602;10.980;2023-07-30T14:06:46;26.70;99.90
10968;DHT22;5536;49.602;10.980;2023-07-30T14:09:13;26.00;99.90
10968;DHT22;5536;49.602;10.980;2023-07-30T14:11:40;25.50;99.90
10968;DHT22;5536;49.602;10.980;2023-07-30T14:14:11;25.00;99.90
10968;DHT22;5536;49.602;10.980;2023-07-30T14:16:38;24.10;99.90
10968;DHT22;5536;49.602;10.980;2023-07-30T14:19:05;23.60;99.90
10968;DHT22;5536;49.602;10.980;2023-07-30T14:21:33;23.30;99.90
10968;DHT22;5536;49.602;10.980;2023-07-30T14:24:00;23.30;99.90
10968;DHT22;5536;49.602;10.980;2023-07-30T14:26:27;24.10;99.90
10968;DHT22;5536;49.602;10.980;2023-07-30T14:28:54;24.30;99.90
10968;DHT22;5536;49.602;10.980;2023-07-30T14:31:21;24.40;99.90
10968;DHT22;5536;49.602;10.980;2023-07-30T14:33:48;23.90;99.90
10968;DHT22;5536;49.602;10.980;2023-07-30T14:36:15;23.90;99.90
10968;DHT22;5536;49.602;10.980;2023-07-30T14:38:43;24.10;99.90
10968;DHT22;5536;49.602;10.980;2023-07-30T14:41:10;25.10;99.90
10968;DHT22;5536;49.602;10.980;2023-07-30T14:43:38;25.70;99.90
10968;DHT22;5536;49.602;10.980;2023-07-30T14:46:04;25.20;99.90
10968;DHT22;5536;49.602;10.980;2023-07-30T14:48:32;24.40;99.90
10968;DHT22;5536;49.602;10.980;2023-07-30T14:50:59;23.90;99.90
10968;DHT22;5536;49.602;10.980;2023-07-30T14:53:26;24.10;99.90
10968;DHT22;5536;49.602;10.980;2023-07-30T14:55:55;24.60;99.90
10968;DHT22;5536;49.602;10.980;2023-07-30T14:58:22;24.10;99.90
10968;DHT22;5536;49.602;10.980;2023-07-30T15:00:49;23.60;99.90
10968;DHT22;5536;49.602;10.980;2023-07-30T15:03:16;23.30;99.90
10968;DHT22;5536;49.602;10.980;2023-07-30T15:05:44;24.00;99.90
10968;DHT22;5536;49.602;10.980;2023-07-30T15:08:11;24.80;99.90
10968;DHT22;5536;49.602;10.980;2023-07-30T15:10:38;25.20;99.90
10968;DHT22;5536;49.602;10.980;2023-07-30T15:13:07;25.60;99.90
10968;DHT22;5536;49.602;10.980;2023-07-30T15:15:34;25.10;99.90
10968;DHT22;5536;49.602;10.980;2023-07-30T15:18:01;25.20;99.90
10968;DHT22;5536;49.602;10.980;2023-07-30T15:20:31;24.60;99.90
10968;DHT22;5536;49.602;10.980;2023-07-30T15:22:58;24.00;99.90
10968;DHT22;5536;49.602;10.980;2023-07-30T15:25:25;24.30;99.90
10968;DHT22;5536;49.602;10.980;2023-07-30T15:27:52;25.20;99.90
10968;DHT22;5536;49.602;10.980;2023-07-30T15:30:20;26.00;99.90
10968;DHT22;5536;49.602;10.980;2023-07-30T15:32:47;26.00;99.90